Time;durP1;ratioP1;P1;durP2;ratioP2;P2;SDS_P1;SDS_P2;PMS_P1;PMS_P2;Temp;Humidity;BMP_temperature;BMP_pressure;BME280_temperature;BME280_humidity;BME280_pressure;Samples;Min_cycle;Max_cycle;Signal;HPM_P1;HPM_P2
2023/05/22 00:00:43;;;;;;;6.25;3.88;;;16.00;99.90;;;;;;4916665;29;20047;-78
2023/05/22 00:03:09;;;;;;;8.98;4.65;;;16.00;99.90;;;;;;4916466;29;20024;-75
2023/05/22 00:05:37;;;;;;;8.63;3.70;;;15.90;99.90;;;;;;4920119;29;20121;-76
2023/05/22 00:08:05;;;;;;;12.23;4.25;;;15.80;99.90;;;;;;4916426;29;20036;-76
2023/05/22 00:10:31;;;;;;;7.28;4.43;;;15.80;99.90;;;;;;4924018;29;20040;-76
2023/05/22 00:12:56;;;;;;;10.55;5.25;;;15.80;99.90;;;;;;4916030;29;20037;-77
2023/05/22 00:15:22;;;;;;;16.20;5.20;;;15.80;99.90;;;;;;4919368;29;20499;-78
2023/05/22 00:17:48;;;;;;;11.10;5.32;;;15.70;99.90;;;;;;4917007;29;20028;-75
2023/05/22 00:20:14;;;;;;;9.70;5.47;;;15.60;99.90;;;;;;4920004;29;20054;-78
2023/05/22 00:22:41;;;;;;;10.60;5.45;;;15.50;99.90;;;;;;4916656;29;20380;-76
2023/05/22 00:25:07;;;;;;;11.68;6.43;;;15.50;99.90;;;;;;4916093;29;20051;-78
2023/05/22 00:27:33;;;;;;;11.50;5.43;;;15.50;99.90;;;;;;4917214;29;20028;-76
2023/05/22 00:29:59;;;;;;;10.20;5.30;;;15.50;99.90;;;;;;4916503;29;20024;-79
2023/05/22 00:32:25;;;;;;;12.20;6.13;;;15.40;99.90;;;;;;4899295;29;20020;-79
2023/05/22 00:34:51;;;;;;;11.10;5.50;;;15.40;99.90;;;;;;4914064;29;20063;-79
2023/05/22 00:37:21;;;;;;;11.75;6.82;;;15.30;99.90;;;;;;4915057;29;20376;-76
2023/05/22 00:39:48;;;;;;;14.52;8.43;;;15.20;99.90;;;;;;4915680;29;20126;-75
2023/05/22 00:42:13;;;;;;;11.60;7.50;;;15.10;99.90;;;;;;4898334;29;20038;-76
2023/05/22 00:44:40;;;;;;;15.48;7.40;;;15.10;99.90;;;;;;4913431;29;20111;-75
2023/05/22 00:47:06;;;;;;;17.10;7.10;;;15.00;99.90;;;;;;4915552;29;20503;-77
2023/05/22 00:49:32;;;;;;;12.93;6.78;;;15.00;99.90;;;;;;4898775;29;20170;-76
2023/05/22 00:51:59;;;;;;;11.52;7.15;;;15.00;99.90;;;;;;4919934;29;20035;-77
2023/05/22 00:54:25;;;;;;;11.60;7.18;;;15.00;99.90;;;;;;4915753;29;20028;-79
2023/05/22 00:56:51;;;;;;;13.57;6.75;;;15.00;99.90;;;;;;4915399;29;20036;-78
2023/05/22 00:59:17;;;;;;;10.68;6.32;;;14.90;99.90;;;;;;4914636;29;20357;-76
2023/05/22 01:01:43;;;;;;;14.48;7.28;;;14.90;99.90;;;;;;4898348;29;20107;-78
2023/05/22 01:04:11;;;;;;;12.57;6.55;;;14.80;99.90;;;;;;4917008;29;20543;-75
2023/05/22 01:06:37;;;;;;;13.77;6.78;;;14.80;99.90;;;;;;4915695;29;20099;-77
2023/05/22 01:09:04;;;;;;;15.80;6.78;;;14.80;99.90;;;;;;4915565;29;20489;-78
2023/05/22 01:11:49;;;;;;;11.15;6.05;;;14.60;99.90;;;;;;4919399;29;20429;-74
2023/05/22 01:14:28;;;;;;;13.88;6.28;;;14.50;99.90;;;;;;4898483;29;20376;-76
2023/05/22 01:17:22;;;;;;;12.48;6.35;;;14.50;99.90;;;;;;4915384;29;20050;-77
2023/05/22 01:20:32;;;;;;;9.40;6.35;;;14.50;99.90;;;;;;4923035;29;20028;-75
2023/05/22 01:23:32;;;;;;;11.70;6.13;;;14.50;99.90;;;;;;4856837;29;20114;-75
2023/05/22 01:26:13;;;;;;;10.10;5.70;;;14.40;99.90;;;;;;4857665;29;20036;-77
2023/05/22 01:28:58;;;;;;;8.23;5.47;;;14.40;99.90;;;;;;4842829;29;20911;-74
2023/05/22 01:31:25;;;;;;;10.90;6.13;;;14.30;99.90;;;;;;4848043;29;20029;-78
2023/05/22 01:33:55;;;;;;;11.43;5.75;;;14.30;99.90;;;;;;4856963;29;20037;-78
2023/05/22 01:36:25;;;;;;;11.15;6.00;;;14.30;99.90;;;;;;4856755;29;20051;-77
2023/05/22 01:38:53;;;;;;;8.15;5.85;;;14.20;99.90;;;;;;4841092;29;20033;-77
2023/05/22 01:41:20;;;;;;;11.95;6.15;;;14.20;99.90;;;;;;4856592;29;20037;-77
2023/05/22 01:43:46;;;;;;;12.30;5.68;;;14.10;99.90;;;;;;4856738;29;20033;-75
2023/05/22 01:46:12;;;;;;;9.70;5.47;;;14.10;99.90;;;;;;4856978;29;20041;-76
2023/05/22 01:48:38;;;;;;;9.90;5.28;;;14.10;99.90;;;;;;4856415;29;20406;-76
2023/05/22 01:51:22;;;;;;;14.05;6.28;;;14.10;99.90;;;;;;4857112;29;20025;-73
2023/05/22 01:54:06;;;;;;;11.20;5.95;;;14.20;99.90;;;;;;4856394;29;20190;-75
2023/05/22 01:56:40;;;;;;;12.07;5.90;;;14.20;99.90;;;;;;4856412;29;20022;-73
2023/05/22 01:59:29;;;;;;;9.68;5.90;;;14.20;99.90;;;;;;4862741;29;20071;-75
2023/05/22 02:02:00;;;;;;;11.10;6.20;;;14.20;99.90;;;;;;4896961;29;20036;-77
2023/05/22 02:04:28;;;;;;;10.68;6.72;;;14.20;99.90;;;;;;4899305;29;20040;-77
2023/05/22 02:06:58;;;;;;;13.18;6.45;;;14.30;99.90;;;;;;4913486;29;20455;-79
2023/05/22 02:09:29;;;;;;;12.23;6.68;;;14.30;99.90;;;;;;4914573;29;20043;-76
2023/05/22 02:11:57;;;;;;;11.00;6.17;;;14.30;99.90;;;;;;4897230;29;20059;-75
2023/05/22 02:14:24;;;;;;;10.52;6.45;;;14.30;99.90;;;;;;4914756;29;20865;-79
2023/05/22 02:16:50;;;;;;;11.30;6.40;;;14.30;99.90;;;;;;4897454;29;20111;-75
2023/05/22 02:19:16;;;;;;;10.27;5.88;;;14.30;99.90;;;;;;4914263;29;20441;-74
2023/05/22 02:21:42;;;;;;;11.15;6.18;;;14.30;99.90;;;;;;4897912;29;20092;-78
2023/05/22 02:24:08;;;;;;;11.95;6.72;;;14.40;99.90;;;;;;4923641;29;20020;-77
2023/05/22 02:26:34;;;;;;;16.63;7.18;;;14.40;99.90;;;;;;4917510;29;20036;-76
2023/05/22 02:29:01;;;;;;;10.10;6.45;;;14.40;99.90;;;;;;4918914;29;20506;-73
2023/05/22 02:31:28;;;;;;;10.98;6.60;;;14.40;99.90;;;;;;4934629;29;20149;-77
2023/05/22 02:33:56;;;;;;;9.60;6.03;;;14.40;99.90;;;;;;4917515;29;20066;-79
2023/05/22 02:36:22;;;;;;;12.10;7.03;;;14.40;99.90;;;;;;4930329;29;20032;-77
2023/05/22 02:38:48;;;;;;;14.60;7.53;;;14.40;99.90;;;;;;4917450;29;20028;-74
2023/05/22 02:41:13;;;;;;;12.40;6.93;;;14.40;99.90;;;;;;4917352;29;20063;-77
2023/05/22 02:43:39;;;;;;;13.40;6.78;;;14.40;99.90;;;;;;4934590;29;20103;-78
2023/05/22 02:46:05;;;;;;;12.82;7.32;;;14.40;99.90;;;;;;4904821;29;20068;-75
2023/05/22 02:48:31;;;;;;;12.13;7.28;;;14.30;99.90;;;;;;4934604;29;20091;-74
2023/05/22 02:50:57;;;;;;;10.98;6.05;;;14.30;99.90;;;;;;4917540;29;20062;-76
2023/05/22 02:53:22;;;;;;;10.18;6.57;;;14.30;99.90;;;;;;4916582;29;20032;-74
2023/05/22 02:55:49;;;;;;;14.43;7.07;;;14.30;99.90;;;;;;4901390;29;20044;-77
2023/05/22 02:58:16;;;;;;;11.85;6.70;;;14.20;99.90;;;;;;4916944;29;20539;-78
2023/05/22 03:00:44;;;;;;;10.48;6.05;;;14.20;99.90;;;;;;4917125;29;20047;-76
2023/05/22 03:03:10;;;;;;;15.90;7.57;;;14.20;99.90;;;;;;4917249;29;20111;-73
2023/05/22 03:05:37;;;;;;;11.18;6.63;;;14.20;99.90;;;;;;4916976;29;20047;-75
2023/05/22 03:08:03;;;;;;;11.75;6.88;;;14.30;99.90;;;;;;4934832;29;20019;-74
2023/05/22 03:10:29;;;;;;;9.82;6.05;;;14.30;99.90;;;;;;4916702;29;20408;-79
2023/05/22 03:12:54;;;;;;;13.38;6.25;;;14.20;99.90;;;;;;4902075;29;20069;-76
2023/05/22 03:15:21;;;;;;;12.60;6.95;;;14.20;99.90;;;;;;4884452;29;20036;-77
2023/05/22 03:17:48;;;;;;;12.77;7.22;;;14.20;99.90;;;;;;4901574;29;20071;-77
2023/05/22 03:20:15;;;;;;;14.15;7.00;;;14.20;99.90;;;;;;4901603;29;20436;-79
2023/05/22 03:22:47;;;;;;;18.38;6.97;;;14.10;99.90;;;;;;4917779;29;20036;-78
2023/05/22 03:25:13;;;;;;;13.95;7.93;;;14.20;99.90;;;;;;4898885;29;20051;-73
2023/05/22 03:27:42;;;;;;;12.68;7.22;;;14.10;99.90;;;;;;4901589;29;20024;-76
2023/05/22 03:30:09;;;;;;;14.07;7.30;;;14.10;99.90;;;;;;4901793;29;20496;-74
2023/05/22 03:32:37;;;;;;;13.35;7.00;;;14.10;99.90;;;;;;4901243;29;20035;-77
2023/05/22 03:35:05;;;;;;;12.70;7.05;;;14.10;99.90;;;;;;4901741;29;20028;-75
2023/05/22 03:37:30;;;;;;;14.10;7.45;;;14.30;99.90;;;;;;4918200;29;20020;-77
2023/05/22 03:39:57;;;;;;;12.50;6.82;;;14.60;99.90;;;;;;4901470;29;20056;-75
2023/05/22 03:42:28;;;;;;;17.30;7.40;;;14.80;99.90;;;;;;4901650;29;20039;-76
2023/05/22 03:44:55;;;;;;;12.77;7.32;;;15.30;99.90;;;;;;4901287;29;20034;-78
2023/05/22 03:47:22;;;;;;;11.07;6.78;;;15.60;99.90;;;;;;4918219;29;20062;-77
2023/05/22 03:49:48;;;;;;;11.38;6.95;;;16.00;99.90;;;;;;4895122;29;20575;-76
2023/05/22 03:52:14;;;;;;;12.23;6.68;;;16.70;99.90;;;;;;4899464;29;20051;-75
2023/05/22 03:54:40;;;;;;;8.50;5.95;;;17.40;99.90;;;;;;4891398;29;20120;-76
2023/05/22 03:57:06;;;;;;;11.32;6.75;;;17.60;99.90;;;;;;4895099;29;20025;-76
2023/05/22 03:59:32;;;;;;;10.38;6.20;;;18.00;99.90;;;;;;4892527;29;20107;-77
2023/05/22 04:01:59;;;;;;;9.32;5.40;;;18.30;99.90;;;;;;4900692;29;20158;-77
2023/05/22 04:04:27;;;;;;;8.45;5.35;;;18.80;99.90;;;;;;4918296;29;20388;-76
2023/05/22 04:06:53;;;;;;;8.93;5.47;;;19.30;99.90;;;;;;4917857;29;20032;-75
2023/05/22 04:09:19;;;;;;;9.00;5.50;;;19.30;99.90;;;;;;4901230;29;20028;-77
2023/05/22 04:11:45;;;;;;;7.65;5.18;;;19.80;99.90;;;;;;4906695;29;20058;-76
2023/05/22 04:14:11;;;;;;;10.13;5.32;;;20.30;99.90;;;;;;4919715;29;20032;-75
2023/05/22 04:16:37;;;;;;;9.10;6.13;;;20.50;99.90;;;;;;4931391;29;20486;-74
2023/05/22 04:19:04;;;;;;;8.82;5.13;;;21.10;98.60;;;;;;4934560;29;20039;-76
2023/05/22 04:21:34;;;;;;;8.07;4.97;;;21.30;97.10;;;;;;4918775;29;20036;-77
2023/05/22 04:24:05;;;;;;;9.25;5.05;;;21.10;97.80;;;;;;4919554;29;20023;-76
2023/05/22 04:26:32;;;;;;;10.82;4.53;;;21.20;97.80;;;;;;4930385;29;20063;-76
2023/05/22 04:28:58;;;;;;;9.23;5.00;;;21.20;97.10;;;;;;4936360;29;20077;-74
2023/05/22 04:31:24;;;;;;;8.00;4.90;;;21.60;97.30;;;;;;4936549;29;20067;-74
2023/05/22 04:33:50;;;;;;;8.82;4.95;;;21.60;97.00;;;;;;4918874;29;20034;-75
2023/05/22 04:36:16;;;;;;;7.97;4.88;;;21.80;97.10;;;;;;4918879;29;20491;-75
2023/05/22 04:38:43;;;;;;;9.52;5.07;;;22.30;95.40;;;;;;4936341;29;20023;-77
2023/05/22 04:41:16;;;;;;;10.05;5.13;;;22.20;94.20;;;;;;4936478;29;20040;-75
2023/05/22 04:43:43;;;;;;;9.35;4.90;;;22.60;94.00;;;;;;4936022;29;20031;-75
2023/05/22 04:46:09;;;;;;;9.85;5.35;;;22.80;95.10;;;;;;4936204;29;20038;-75
2023/05/22 04:48:36;;;;;;;7.60;4.90;;;23.40;93.80;;;;;;4935314;29;20028;-75
2023/05/22 04:51:03;;;;;;;9.68;4.63;;;23.40;93.80;;;;;;4918938;29;20399;-78
2023/05/22 04:53:29;;;;;;;9.32;5.50;;;23.30;93.80;;;;;;4919030;29;20028;-74
2023/05/22 04:55:56;;;;;;;10.57;5.32;;;23.30;94.00;;;;;;4918783;29;20118;-76
2023/05/22 04:58:22;;;;;;;11.30;5.53;;;22.00;94.30;;;;;;4919206;29;20145;-76
2023/05/22 05:00:51;;;;;;;11.73;5.45;;;21.50;95.30;;;;;;4918512;29;20042;-76
2023/05/22 05:03:17;;;;;;;12.50;6.75;;;20.90;95.70;;;;;;4936085;29;20099;-76
2023/05/22 05:05:43;;;;;;;12.07;6.45;;;20.50;96.10;;;;;;4917650;29;20048;-76
2023/05/22 05:08:10;;;;;;;8.82;4.97;;;20.10;97.20;;;;;;4918760;29;20035;-74
2023/05/22 05:10:36;;;;;;;9.82;5.43;;;20.20;99.20;;;;;;4918705;29;20070;-75
2023/05/22 05:13:02;;;;;;;9.07;5.43;;;18.90;99.90;;;;;;4918514;29;20503;-76
2023/05/22 05:15:28;;;;;;;7.47;5.20;;;19.30;99.90;;;;;;4918760;29;20087;-75
2023/05/22 05:17:54;;;;;;;10.10;4.95;;;19.70;99.90;;;;;;4918459;29;20027;-76
2023/05/22 05:20:20;;;;;;;6.55;4.63;;;19.80;99.90;;;;;;4935492;29;20036;-76
2023/05/22 05:22:46;;;;;;;11.75;4.90;;;20.10;99.90;;;;;;4935534;29;20020;-76
2023/05/22 05:25:14;;;;;;;9.10;4.82;;;20.30;99.90;;;;;;4918423;29;20082;-77
2023/05/22 05:27:40;;;;;;;10.75;4.95;;;20.20;99.90;;;;;;4917796;29;20044;-76
2023/05/22 05:30:08;;;;;;;11.05;5.35;;;19.80;99.90;;;;;;4917939;29;20095;-76
2023/05/22 05:33:12;;;;;;;9.13;4.65;;;19.90;99.90;;;;;;4871678;29;20029;-76
2023/05/22 05:35:54;;;;;;;6.65;4.65;;;20.00;99.90;;;;;;4854244;29;20038;-76
2023/05/22 05:38:23;;;;;;;9.02;5.55;;;20.30;99.90;;;;;;4859936;29;20177;-74
2023/05/22 05:40:49;;;;;;;11.68;5.03;;;20.30;99.90;;;;;;4876405;29;20119;-75
2023/05/22 05:43:15;;;;;;;10.52;4.78;;;20.50;99.90;;;;;;4866745;29;20124;-76
2023/05/22 05:45:43;;;;;;;9.05;5.43;;;20.50;99.60;;;;;;4860723;29;20033;-75
2023/05/22 05:48:10;;;;;;;10.38;6.57;;;20.40;99.90;;;;;;4860793;29;20642;-74
2023/05/22 05:50:39;;;;;;;12.13;6.45;;;20.50;99.90;;;;;;4863161;29;20450;-76
2023/05/22 05:53:07;;;;;;;13.00;6.93;;;20.40;97.60;;;;;;4876553;29;20104;-73
2023/05/22 05:55:34;;;;;;;15.80;6.50;;;20.10;99.70;;;;;;4876113;29;20040;-74
2023/05/22 05:58:00;;;;;;;12.85;6.00;;;19.80;99.40;;;;;;4876371;29;20617;-74
2023/05/22 06:00:52;;;;;;;12.37;5.67;;;20.30;99.90;;;;;;4876082;29;20043;-76
2023/05/22 06:03:18;;;;;;;10.25;6.30;;;20.00;99.90;;;;;;4874508;29;20031;-75
2023/05/22 06:05:52;;;;;;;16.55;6.70;;;20.10;99.90;;;;;;4917787;29;20028;-75
2023/05/22 06:08:41;;;;;;;13.35;6.50;;;20.30;99.90;;;;;;4935126;29;20039;-74
2023/05/22 06:11:07;;;;;;;12.98;6.65;;;20.30;99.90;;;;;;4917641;29;20130;-77
2023/05/22 06:13:37;;;;;;;10.27;5.75;;;20.90;99.90;;;;;;4918136;29;20146;-77
2023/05/22 06:16:03;;;;;;;11.80;6.15;;;21.20;99.80;;;;;;4917614;29;20063;-76
2023/05/22 06:18:29;;;;;;;19.08;6.63;;;21.50;99.90;;;;;;4934657;29;20396;-76
2023/05/22 06:20:57;;;;;;;10.25;6.43;;;21.60;98.80;;;;;;4916688;29;20047;-75
2023/05/22 06:23:24;;;;;;;14.05;5.97;;;21.70;98.50;;;;;;4917503;29;20433;-77
2023/05/22 06:25:51;;;;;;;14.57;6.63;;;21.70;98.40;;;;;;4934571;29;20050;-76
2023/05/22 06:28:17;;;;;;;22.45;6.35;;;21.80;98.20;;;;;;4917284;29;20492;-76
2023/05/22 06:30:43;;;;;;;12.18;6.15;;;22.00;98.80;;;;;;4917141;29;20032;-76
2023/05/22 06:33:13;;;;;;;10.13;5.80;;;22.00;97.60;;;;;;4916990;29;20032;-75
2023/05/22 06:35:40;;;;;;;11.88;5.28;;;22.20;97.90;;;;;;4923814;29;20049;-76
2023/05/22 06:38:06;;;;;;;15.82;6.50;;;22.30;96.70;;;;;;4916921;29;20118;-75
2023/05/22 06:40:33;;;;;;;15.30;6.57;;;22.10;99.90;;;;;;4917189;29;20480;-76
2023/05/22 06:43:07;;;;;;;12.93;5.28;;;22.20;98.20;;;;;;4917396;29;20063;-75
2023/05/22 06:45:45;;;;;;;7.40;4.82;;;22.30;96.20;;;;;;4919476;29;20022;-75
2023/05/22 06:48:35;;;;;;;9.45;5.38;;;22.30;95.70;;;;;;4932219;29;20095;-75
2023/05/22 06:51:24;;;;;;;9.20;5.13;;;22.80;94.90;;;;;;4873406;29;20041;-75
2023/05/22 06:53:53;;;;;;;12.10;5.97;;;22.40;95.60;;;;;;4865804;29;20033;-76
2023/05/22 06:56:24;;;;;;;9.73;4.88;;;22.40;96.50;;;;;;4863546;29;20108;-75
2023/05/22 06:58:59;;;;;;;11.35;5.70;;;22.40;94.90;;;;;;4849594;29;20026;-75
2023/05/22 07:01:45;;;;;;;8.02;4.65;;;22.70;98.90;;;;;;4852836;29;20048;-75
2023/05/22 07:04:14;;;;;;;8.82;4.93;;;23.00;95.40;;;;;;4830943;29;20041;-76
2023/05/22 07:06:49;;;;;;;11.02;5.18;;;22.70;95.50;;;;;;4842022;29;20045;-76
2023/05/22 07:09:16;;;;;;;7.72;4.68;;;22.50;93.80;;;;;;4845257;29;20443;-75
2023/05/22 07:11:42;;;;;;;8.60;4.70;;;23.20;94.90;;;;;;4839148;29;20046;-76
2023/05/22 07:14:11;;;;;;;10.77;4.85;;;23.40;93.90;;;;;;4851844;29;20447;-76
2023/05/22 07:16:39;;;;;;;8.93;4.38;;;23.50;94.30;;;;;;4844619;29;20049;-75
2023/05/22 07:19:07;;;;;;;10.30;4.07;;;23.60;92.40;;;;;;4827540;29;20040;-75
2023/05/22 07:21:36;;;;;;;7.30;3.78;;;23.80;94.30;;;;;;4842214;29;20085;-76
2023/05/22 07:24:07;;;;;;;6.88;4.30;;;23.90;93.40;;;;;;4825848;29;20046;-76
2023/05/22 07:26:36;;;;;;;6.80;4.37;;;24.20;93.40;;;;;;4860539;29;20041;-76
2023/05/22 07:29:06;;;;;;;5.20;3.25;;;23.90;92.80;;;;;;4866753;29;20037;-76
2023/05/22 07:31:33;;;;;;;7.25;4.22;;;23.70;93.70;;;;;;4882000;29;20036;-76
2023/05/22 07:34:00;;;;;;;8.50;4.13;;;23.90;93.80;;;;;;4882086;29;20024;-76
2023/05/22 07:36:28;;;;;;;6.28;3.67;;;24.10;93.50;;;;;;4897275;29;20500;-76
2023/05/22 07:38:54;;;;;;;6.32;3.35;;;23.60;92.60;;;;;;4918725;29;20039;-76
2023/05/22 07:41:21;;;;;;;6.30;3.55;;;23.90;92.80;;;;;;4920205;29;20376;-76
2023/05/22 07:43:48;;;;;;;5.18;3.40;;;23.40;92.30;;;;;;4920456;29;20083;-76
2023/05/22 07:46:18;;;;;;;6.13;3.67;;;23.90;93.10;;;;;;4920236;29;20111;-75
2023/05/22 07:48:57;;;;;;;15.82;3.25;;;23.70;93.00;;;;;;4920262;29;20119;-76
2023/05/22 07:51:23;;;;;;;8.23;3.63;;;23.80;92.20;;;;;;4918665;29;20127;-76
2023/05/22 07:53:50;;;;;;;7.20;3.15;;;24.20;92.40;;;;;;4919783;29;20062;-76
2023/05/22 07:56:16;;;;;;;5.45;3.35;;;24.20;95.80;;;;;;4936254;29;20475;-76
2023/05/22 07:58:46;;;;;;;8.18;3.92;;;24.60;95.90;;;;;;4919601;29;20032;-77
2023/05/22 08:01:14;;;;;;;5.95;3.35;;;24.60;92.00;;;;;;4920452;29;20105;-75
2023/05/22 08:03:40;;;;;;;7.65;3.97;;;24.70;91.50;;;;;;4936922;29;20027;-75
2023/05/22 08:06:06;;;;;;;6.35;3.83;;;24.70;92.40;;;;;;4936653;29;20114;-76
2023/05/22 08:08:32;;;;;;;6.70;3.10;;;24.80;91.60;;;;;;4934349;29;20103;-76
2023/05/22 08:10:58;;;;;;;5.18;2.67;;;25.10;98.90;;;;;;4936528;29;20072;-76
2023/05/22 08:13:24;;;;;;;7.38;2.90;;;24.60;93.00;;;;;;4936917;29;20063;-76
2023/05/22 08:15:50;;;;;;;8.00;3.33;;;24.70;94.10;;;;;;4936137;29;20682;-76
2023/05/22 08:18:16;;;;;;;5.30;3.28;;;25.00;92.10;;;;;;4936359;29;20361;-76
2023/05/22 08:20:41;;;;;;;5.82;3.30;;;24.80;91.80;;;;;;4936564;29;20040;-76
2023/05/22 08:23:07;;;;;;;6.10;3.35;;;24.70;96.70;;;;;;4936312;29;20460;-76
2023/05/22 08:25:33;;;;;;;7.88;3.75;;;24.90;92.00;;;;;;4936487;29;20032;-76
2023/05/22 08:27:59;;;;;;;4.35;2.90;;;24.60;92.80;;;;;;4936565;29;20028;-77
2023/05/22 08:30:25;;;;;;;11.82;3.83;;;24.70;91.40;;;;;;4935660;29;20050;-77
2023/05/22 08:32:50;;;;;;;6.68;3.35;;;24.90;91.70;;;;;;4936716;29;20039;-76
2023/05/22 08:35:16;;;;;;;7.05;3.45;;;25.00;94.20;;;;;;4936305;29;20032;-76
2023/05/22 08:37:43;;;;;;;8.18;3.60;;;25.10;92.60;;;;;;4919511;29;20036;-76
2023/05/22 08:40:14;;;;;;;4.15;3.22;;;25.20;99.50;;;;;;4936048;29;20032;-77
2023/05/22 08:42:40;;;;;;;6.53;3.45;;;25.00;90.60;;;;;;4918798;29;20050;-76
2023/05/22 08:45:06;;;;;;;5.82;3.42;;;25.10;91.00;;;;;;4936120;29;20032;-77
2023/05/22 08:47:36;;;;;;;5.60;3.67;;;25.00;90.80;;;;;;4936213;29;20091;-76
2023/05/22 08:50:03;;;;;;;6.57;3.78;;;24.70;90.80;;;;;;4935923;29;20055;-76
2023/05/22 08:52:47;;;;;;;5.97;3.45;;;24.80;91.80;;;;;;4934469;29;20027;-77
2023/05/22 08:55:13;;;;;;;5.88;3.78;;;24.60;91.80;;;;;;4934159;29;20437;-76
2023/05/22 08:57:40;;;;;;;6.53;3.58;;;24.60;93.80;;;;;;4935973;29;20473;-76
2023/05/22 09:00:06;;;;;;;10.00;3.20;;;24.90;92.90;;;;;;4935929;29;20043;-76
2023/05/22 09:02:32;;;;;;;9.10;3.20;;;25.00;93.50;;;;;;4935996;29;20028;-75
2023/05/22 09:05:00;;;;;;;5.72;3.55;;;25.10;93.80;;;;;;4935684;29;20448;-76
2023/05/22 09:07:28;;;;;;;4.50;3.15;;;24.50;92.20;;;;;;4935767;29;20024;-76
2023/05/22 09:09:55;;;;;;;7.15;3.40;;;24.40;92.80;;;;;;4935658;29;20035;-75
2023/05/22 09:12:21;;;;;;;4.97;3.38;;;24.40;94.30;;;;;;4935222;29;20055;-76
2023/05/22 09:14:47;;;;;;;6.20;3.22;;;24.90;93.30;;;;;;4935592;29;20035;-75
2023/05/22 09:17:16;;;;;;;8.38;3.92;;;25.30;94.20;;;;;;4935051;29;20032;-75
2023/05/22 09:19:45;;;;;;;5.57;3.55;;;25.30;93.50;;;;;;4935382;29;20171;-76
2023/05/22 09:22:12;;;;;;;5.85;3.15;;;25.30;93.80;;;;;;4934928;29;20086;-76
2023/05/22 09:24:41;;;;;;;7.25;3.58;;;25.60;94.00;;;;;;4935431;29;20076;-76
2023/05/22 09:27:07;;;;;;;7.75;3.33;;;25.40;92.80;;;;;;4935169;29;20038;-75
2023/05/22 09:29:49;;;;;;;8.07;3.80;;;24.70;93.40;;;;;;4935639;29;20020;-76
2023/05/22 09:32:16;;;;;;;5.63;3.28;;;25.20;92.60;;;;;;4935534;29;20020;-76
2023/05/22 09:34:43;;;;;;;9.13;3.58;;;25.50;93.00;;;;;;4935273;29;20023;-76
2023/05/22 09:37:11;;;;;;;5.60;3.85;;;25.30;93.50;;;;;;4923230;29;20040;-75
2023/05/22 09:39:42;;;;;;;7.18;3.53;;;25.70;94.30;;;;;;4935302;29;20126;-76
2023/05/22 09:42:13;;;;;;;6.60;4.17;;;25.80;94.10;;;;;;4927533;29;20047;-76
2023/05/22 09:44:43;;;;;;;6.93;3.80;;;24.50;92.90;;;;;;4934599;29;20047;-77
2023/05/22 09:47:10;;;;;;;9.38;3.88;;;24.50;93.70;;;;;;4935307;29;20063;-77
2023/05/22 09:49:43;;;;;;;11.82;3.78;;;24.60;93.80;;;;;;4934810;29;20023;-78
2023/05/22 09:52:11;;;;;;;7.90;4.35;;;24.80;94.60;;;;;;4934815;29;20111;-77
2023/05/22 09:54:59;;;;;;;7.10;3.63;;;24.80;94.70;;;;;;4934858;29;20027;-75
2023/05/22 09:57:26;;;;;;;5.25;3.67;;;25.00;97.40;;;;;;4934695;29;20035;-75
2023/05/22 09:59:56;;;;;;;8.00;4.50;;;24.70;92.70;;;;;;4934814;29;20472;-76
2023/05/22 10:02:24;;;;;;;7.68;4.05;;;24.90;93.60;;;;;;4935073;29;20476;-77
2023/05/22 10:04:51;;;;;;;5.22;3.28;;;25.20;94.40;;;;;;4935017;29;20034;-76
2023/05/22 10:07:41;;;;;;;6.03;3.33;;;24.60;94.00;;;;;;4934615;29;20460;-75
2023/05/22 10:10:08;;;;;;;5.82;3.40;;;25.00;94.30;;;;;;4935085;29;20028;-77
2023/05/22 10:12:41;;;;;;;9.50;3.88;;;25.20;92.20;;;;;;4934315;29;20103;-75
2023/05/22 10:15:09;;;;;;;5.63;4.05;;;25.50;92.10;;;;;;4934250;29;20400;-76
2023/05/22 10:17:36;;;;;;;6.18;3.60;;;25.60;92.20;;;;;;4934329;29;20062;-75
2023/05/22 10:20:06;;;;;;;5.80;3.75;;;25.40;92.10;;;;;;4926364;29;20047;-76
2023/05/22 10:22:35;;;;;;;6.55;4.13;;;25.30;91.40;;;;;;4934286;29;20051;-76
2023/05/22 10:25:02;;;;;;;8.25;4.03;;;25.40;91.70;;;;;;4934333;29;20040;-78
2023/05/22 10:27:28;;;;;;;9.50;3.53;;;25.80;99.90;;;;;;4934786;29;20095;-75
2023/05/22 10:30:14;;;;;;;8.07;3.63;;;25.80;99.90;;;;;;4933522;29;20119;-76
2023/05/22 10:33:08;;;;;;;10.40;4.30;;;25.70;99.90;;;;;;4913426;29;20083;-76
2023/05/22 10:35:51;;;;;;;7.63;3.97;;;25.50;99.90;;;;;;4934827;29;20126;-75
2023/05/22 10:39:03;;;;;;;8.75;4.35;;;25.30;99.90;;;;;;4913234;29;20032;-78
2023/05/22 10:41:30;;;;;;;6.55;4.25;;;25.70;93.10;;;;;;4916150;29;20048;-76
2023/05/22 10:43:56;;;;;;;6.95;4.22;;;25.90;91.40;;;;;;4921603;29;20358;-76
2023/05/22 10:46:22;;;;;;;7.32;4.00;;;25.80;91.30;;;;;;4934714;29;20039;-78
2023/05/22 10:48:51;;;;;;;5.88;3.67;;;25.80;92.20;;;;;;4934846;29;20023;-77
2023/05/22 10:51:20;;;;;;;9.52;4.30;;;25.70;92.00;;;;;;4934703;29;20042;-76
2023/05/22 10:54:01;;;;;;;7.72;4.55;;;25.70;92.00;;;;;;4934937;29;20019;-75
2023/05/22 10:56:37;;;;;;;5.72;4.25;;;25.90;92.40;;;;;;4934365;29;20114;-76
2023/05/22 10:59:06;;;;;;;7.10;3.95;;;26.20;92.50;;;;;;4934639;29;20357;-76
2023/05/22 11:01:39;;;;;;;5.63;3.78;;;26.00;92.10;;;;;;4934233;29;20512;-76
2023/05/22 11:04:17;;;;;;;7.88;4.32;;;25.90;91.60;;;;;;4916776;29;20027;-78
2023/05/22 11:07:03;;;;;;;7.20;3.95;;;26.10;91.90;;;;;;4917590;29;20039;-79
2023/05/22 11:09:42;;;;;;;7.57;3.58;;;25.50;91.50;;;;;;4934250;29;20027;-76
2023/05/22 11:12:23;;;;;;;6.97;4.15;;;25.60;91.60;;;;;;4922059;29;20051;-76
2023/05/22 11:14:52;;;;;;;6.22;4.13;;;25.90;92.40;;;;;;4934449;29;20043;-75
2023/05/22 11:17:27;;;;;;;7.05;4.28;;;25.90;91.90;;;;;;4934416;29;20032;-76
2023/05/22 11:20:19;;;;;;;5.85;3.95;;;26.00;93.20;;;;;;4933840;29;20468;-76
2023/05/22 11:22:55;;;;;;;6.45;4.05;;;26.20;91.80;;;;;;4904731;29;20096;-75
2023/05/22 11:25:21;;;;;;;6.57;4.13;;;25.90;91.70;;;;;;4931028;29;20031;-76
2023/05/22 11:27:48;;;;;;;7.13;5.05;;;25.90;91.70;;;;;;4933057;29;20051;-76
2023/05/22 11:30:14;;;;;;;7.38;3.83;;;25.90;91.40;;;;;;4913739;29;20032;-75
2023/05/22 11:32:43;;;;;;;5.55;3.70;;;25.80;91.80;;;;;;4922802;29;20031;-77
2023/05/22 11:35:19;;;;;;;5.13;3.38;;;26.00;90.90;;;;;;4930567;29;20521;-76
2023/05/22 11:37:46;;;;;;;6.65;3.47;;;26.20;91.30;;;;;;4920542;29;20051;-77
2023/05/22 11:40:17;;;;;;;7.22;3.75;;;26.20;91.30;;;;;;4918428;29;20552;-77
2023/05/22 11:42:43;;;;;;;6.37;3.90;;;26.10;90.70;;;;;;4916964;29;20492;-76
2023/05/22 11:45:10;;;;;;;10.80;4.35;;;26.00;91.10;;;;;;4919618;29;20396;-77
2023/05/22 11:47:36;;;;;;;8.02;4.05;;;26.10;91.50;;;;;;4921328;29;20500;-75
2023/05/22 11:50:05;;;;;;;11.80;4.72;;;26.00;90.70;;;;;;4916955;29;20156;-76
2023/05/22 11:52:32;;;;;;;8.07;4.15;;;26.30;91.50;;;;;;4917190;29;20148;-75
2023/05/22 11:54:58;;;;;;;9.35;3.95;;;26.20;90.70;;;;;;4914684;29;20024;-76
2023/05/22 11:57:24;;;;;;;8.88;4.63;;;26.20;90.80;;;;;;4916877;29;20028;-76
2023/05/22 11:59:50;;;;;;;7.75;4.25;;;26.30;91.90;;;;;;4916719;29;20020;-75
2023/05/22 12:02:17;;;;;;;5.78;3.88;;;26.30;93.10;;;;;;4910838;29;20400;-76
2023/05/22 12:04:43;;;;;;;7.28;4.18;;;26.00;91.70;;;;;;4913123;29;20043;-76
2023/05/22 12:07:09;;;;;;;6.70;4.00;;;26.10;92.40;;;;;;4917391;29;20028;-76
2023/05/22 12:09:38;;;;;;;5.55;3.83;;;26.20;92.00;;;;;;4916981;29;20103;-75
2023/05/22 12:12:04;;;;;;;6.75;3.63;;;26.30;91.20;;;;;;4917486;29;20108;-76
2023/05/22 12:14:30;;;;;;;16.88;4.20;;;26.20;92.40;;;;;;4933670;29;20559;-76
2023/05/22 12:17:03;;;;;;;6.50;3.90;;;26.20;91.90;;;;;;4930808;29;20059;-76
2023/05/22 12:19:29;;;;;;;7.55;3.95;;;26.20;92.20;;;;;;4917955;29;20052;-76
2023/05/22 12:21:56;;;;;;;7.72;4.32;;;26.10;91.20;;;;;;4903209;29;20040;-77
2023/05/22 12:24:25;;;;;;;7.40;4.30;;;26.10;91.80;;;;;;4917472;29;20025;-77
2023/05/22 12:26:53;;;;;;;8.07;4.15;;;25.90;90.10;;;;;;4919184;29;20020;-77
2023/05/22 12:29:23;;;;;;;5.45;4.05;;;25.90;89.00;;;;;;4936398;29;20060;-78
2023/05/22 12:31:49;;;;;;;8.05;4.57;;;25.90;89.40;;;;;;4936937;29;20383;-77
2023/05/22 12:34:17;;;;;;;8.70;4.55;;;26.10;90.70;;;;;;4936830;29;20045;-76
2023/05/22 12:36:45;;;;;;;15.75;4.35;;;26.20;90.80;;;;;;4936206;29;20524;-76
2023/05/22 12:39:15;;;;;;;5.13;3.92;;;26.00;90.70;;;;;;4919097;29;20047;-77
2023/05/22 12:41:43;;;;;;;7.10;3.92;;;26.10;91.10;;;;;;4936456;29;20118;-77
2023/05/22 12:44:09;;;;;;;6.53;3.85;;;25.90;89.30;;;;;;4936186;29;20094;-77
2023/05/22 12:46:35;;;;;;;7.63;4.20;;;26.00;91.20;;;;;;4936117;29;20051;-77
2023/05/22 12:49:01;;;;;;;10.45;4.65;;;26.00;92.40;;;;;;4936558;29;20052;-76
2023/05/22 12:51:29;;;;;;;7.38;3.55;;;26.20;92.20;;;;;;4935919;29;20494;-77
2023/05/22 12:54:00;;;;;;;6.55;4.30;;;26.10;97.40;;;;;;4936406;29;20020;-75